createdAt,value
2022-10-11T00:01:27.985Z,99133.19
2022-10-11T00:03:55.061Z,99134.03
2022-10-11T00:06:21.841Z,99129.47
2022-10-11T00:08:48.645Z,99127.63
2022-10-11T00:11:15.757Z,99127.75
2022-10-11T00:13:42.537Z,99134.03
2022-10-11T00:16:10.580Z,99139.47
2022-10-11T00:18:37.917Z,99140.31
2022-10-11T00:21:06.689Z,99131.44
2022-10-11T00:23:33.477Z,99137.72
2022-10-11T00:26:01.481Z,99140.44
2022-10-11T00:28:28.673Z,99132.44
2022-10-11T00:30:55.481Z,99137.84
2022-10-11T00:33:22.677Z,99130.72
2022-10-11T00:35:49.461Z,99131.59
2022-10-11T00:38:16.497Z,99137.84
2022-10-11T00:40:43.861Z,99140.69
2022-10-11T00:43:17.798Z,99131.00
2022-10-11T00:45:57.124Z,99137.28
2022-10-11T00:48:37.605Z,99136.44
2022-10-11T00:51:07.267Z,99133.97
2022-10-11T00:53:34.515Z,99129.69
2022-10-11T00:56:05.186Z,99132.53
2022-10-11T00:58:34.009Z,99134.25
2022-10-11T01:01:00.958Z,99133.13
2022-10-11T01:03:28.056Z,99131.41
2022-10-11T01:05:57.804Z,99134.25
2022-10-11T01:08:24.675Z,99134.25
2022-10-11T01:10:51.934Z,99124.53
2022-10-11T01:13:28.576Z,99127.38
2022-10-11T01:16:14.315Z,99130.22
2022-10-11T01:18:48.975Z,99126.78
2022-10-11T01:21:43.760Z,99128.75
2022-10-11T01:24:38.212Z,99136.19
2022-10-11T01:27:26.627Z,99127.47
2022-10-11T01:30:02.549Z,99131.75
2022-10-11T01:32:34.815Z,99123.00
2022-10-11T01:35:14.443Z,99126.00
2022-10-11T01:37:43.959Z,99122.44
2022-10-11T01:40:17.180Z,99135.00
2022-10-11T01:42:44.207Z,99135.13
2022-10-11T01:45:15.808Z,99134.28
2022-10-11T01:47:42.678Z,99145.25
2022-10-11T01:50:31.568Z,99147.25
2022-10-11T01:52:58.403Z,99143.78
2022-10-11T01:55:30.747Z,99140.22
2022-10-11T01:58:03.687Z,99139.63
2022-10-11T02:00:52.357Z,99144.22
2022-10-11T02:03:41.025Z,99139.78
2022-10-11T02:06:21.387Z,99144.34
2022-10-11T02:08:51.212Z,99142.59
2022-10-11T02:11:27.877Z,99150.03
2022-10-11T02:13:57.823Z,99137.56
2022-10-11T02:16:28.440Z,99151.38
2022-10-11T02:18:55.184Z,99147.81
2022-10-11T02:21:22.386Z,99144.13
2022-10-11T02:23:59.596Z,99146.25
2022-10-11T02:26:28.300Z,99142.06
2022-10-11T02:28:56.753Z,99140.22
2022-10-11T02:31:23.584Z,99151.06
2022-10-11T02:34:07.563Z,99144.19
2022-10-11T02:36:46.379Z,99148.75
2022-10-11T02:39:17.962Z,99147.84
2022-10-11T02:41:44.991Z,99149.72
2022-10-11T02:44:21.491Z,99151.09
2022-10-11T02:46:48.550Z,99149.50
2022-10-11T02:49:15.308Z,99163.16
2022-10-11T02:51:42.094Z,99159.47
2022-10-11T02:54:09.116Z,99162.06
2022-10-11T02:56:35.914Z,99164.78
2022-10-11T02:59:02.710Z,99158.47
2022-10-11T03:01:29.793Z,99161.47
2022-10-11T03:03:56.662Z,99164.19
2022-10-11T03:06:23.406Z,99163.28
2022-10-11T03:08:50.423Z,99159.75
2022-10-11T03:11:17.420Z,99159.88
2022-10-11T03:13:44.182Z,99159.88
2022-10-11T03:16:11.495Z,99174.38
2022-10-11T03:18:38.361Z,99176.38
2022-10-11T03:21:05.180Z,99179.09
2022-10-11T03:23:32.210Z,99172.81
2022-10-11T03:25:59.002Z,99177.38
2022-10-11T03:28:25.890Z,99173.06
2022-10-11T03:30:53.037Z,99185.63
2022-10-11T03:33:19.822Z,99193.00
2022-10-11T03:35:47.190Z,99185.75
2022-10-11T03:38:15.436Z,99197.56
2022-10-11T03:40:42.807Z,99187.75
2022-10-11T03:43:10.090Z,99202.16
2022-10-11T03:45:37.166Z,99204.84
2022-10-11T03:48:04.234Z,99193.28
2022-10-11T03:50:31.370Z,99201.53
2022-10-11T03:52:58.373Z,99199.81
2022-10-11T03:55:25.175Z,99204.97
2022-10-11T03:57:51.969Z,99207.09
2022-10-11T04:00:19.062Z,99214.09
2022-10-11T04:02:45.826Z,99203.38
2022-10-11T04:05:12.730Z,99203.50
2022-10-11T04:07:40.225Z,99197.94
2022-10-11T04:10:07.466Z,99198.97
2022-10-11T04:12:34.301Z,99190.97
2022-10-11T04:15:01.309Z,99185.53
2022-10-11T04:17:28.149Z,99190.97
2022-10-11T04:19:54.893Z,99198.38
2022-10-11T04:22:21.882Z,99194.66
2022-10-11T04:24:48.636Z,99200.06
2022-10-11T04:27:15.413Z,99197.47
2022-10-11T04:29:42.382Z,99206.38
2022-10-11T04:32:09.117Z,99210.91
2022-10-11T04:34:35.940Z,99213.00
2022-10-11T04:37:02.965Z,99214.00
2022-10-11T04:39:29.733Z,99215.72
2022-10-11T04:41:56.533Z,99221.97
2022-10-11T04:44:23.745Z,99220.28
2022-10-11T04:46:50.550Z,99226.78
2022-10-11T04:49:17.328Z,99230.09
2022-10-11T04:51:44.336Z,99230.88
2022-10-11T04:54:11.096Z,99232.81
2022-10-11T04:56:37.889Z,99242.81
2022-10-11T04:59:04.932Z,99240.34
2022-10-11T05:01:31.702Z,99236.91
2022-10-11T05:03:58.504Z,99244.31
2022-10-11T05:06:25.604Z,99241.59
2022-10-11T05:08:52.357Z,99241.59
2022-10-11T05:11:19.272Z,99242.31
2022-10-11T05:13:46.345Z,99243.28
2022-10-11T05:16:13.744Z,99252.44
2022-10-11T05:18:40.734Z,99258.09
2022-10-11T05:21:09.069Z,99258.94
2022-10-11T05:23:36.320Z,99258.94
2022-10-11T05:26:03.680Z,99263.75
2022-10-11T05:28:31.244Z,99274.47
2022-10-11T05:30:58.202Z,99269.91
2022-10-11T05:33:25.847Z,99273.59
2022-10-11T05:35:53.016Z,99282.59
2022-10-11T05:38:19.942Z,99283.31
2022-10-11T05:40:46.687Z,99289.72
2022-10-11T05:43:13.731Z,99293.41
2022-10-11T05:45:41.454Z,99299.69
2022-10-11T05:48:08.779Z,99299.69
2022-10-11T05:50:36.229Z,99304.13
2022-10-11T05:53:03.011Z,99313.50
2022-10-11T05:55:29.819Z,99306.84
2022-10-11T05:57:57.551Z,99310.50
2022-10-11T06:00:24.464Z,99321.22
2022-10-11T06:02:51.226Z,99317.66
2022-10-11T06:05:18.255Z,99329.34
2022-10-11T06:07:45.098Z,99323.09
2022-10-11T06:10:12.030Z,99329.47
2022-10-11T06:12:39.655Z,99335.66
2022-10-11T06:15:07.487Z,99344.63
2022-10-11T06:17:34.816Z,99341.81
2022-10-11T06:20:01.868Z,99345.47
2022-10-11T06:22:29.426Z,99352.63
2022-10-11T06:24:56.274Z,99352.53
2022-10-11T06:27:23.290Z,99352.41
2022-10-11T06:29:50.038Z,99341.56
2022-10-11T06:32:17.109Z,99353.97
2022-10-11T06:34:43.882Z,99353.72
2022-10-11T06:37:10.630Z,99359.16
2022-10-11T06:39:37.773Z,99367.16
2022-10-11T06:42:04.569Z,99373.31
2022-10-11T06:44:31.365Z,99368.63
2022-10-11T06:46:58.413Z,99388.34
2022-10-11T06:49:25.250Z,99378.59
2022-10-11T06:51:52.257Z,99386.50
2022-10-11T06:54:19.698Z,99395.34
2022-10-11T06:56:46.506Z,99395.22
2022-10-11T06:59:13.563Z,99397.81
2022-10-11T07:01:41.986Z,99396.72
2022-10-11T07:04:08.945Z,99398.56
2022-10-11T07:06:39.722Z,99404.56
2022-10-11T07:09:07.226Z,99406.31
2022-10-11T07:11:34.437Z,99416.19
2022-10-11T07:14:04.292Z,99414.09
2022-10-11T07:16:31.334Z,99411.13
2022-10-11T07:19:00.740Z,99413.97
2022-10-11T07:21:28.436Z,99416.28
2022-10-11T07:23:55.484Z,99420.00
2022-10-11T07:26:22.284Z,99433.22
2022-10-11T07:28:49.089Z,99436.13
2022-10-11T07:31:21.022Z,99439.00
2022-10-11T07:33:47.864Z,99440.81
2022-10-11T07:36:14.660Z,99449.56
2022-10-11T07:38:42.436Z,99451.06
2022-10-11T07:41:09.392Z,99458.78
2022-10-11T07:43:36.717Z,99453.25
2022-10-11T07:46:04.881Z,99454.72
2022-10-11T07:48:32.508Z,99460.03
2022-10-11T07:51:19.320Z,99471.34
2022-10-11T07:53:51.012Z,99458.53
2022-10-11T07:56:25.992Z,99466.41
2022-10-11T07:58:58.131Z,99468.88
2022-10-11T08:01:25.872Z,99470.47
2022-10-11T08:03:52.783Z,99475.88
2022-10-11T08:06:21.423Z,99474.66
2022-10-11T08:08:48.968Z,99476.25
2022-10-11T08:11:25.879Z,99485.13
2022-10-11T08:13:53.071Z,99478.72
2022-10-11T08:24:45.780Z,99488.31
2022-10-11T08:27:12.597Z,99491.66
2022-10-11T08:29:39.612Z,99495.94
2022-10-11T08:32:06.439Z,99499.50
2022-10-11T08:34:33.291Z,99494.97
2022-10-11T08:37:00.323Z,99504.09
2022-10-11T08:39:27.120Z,99505.09
2022-10-11T08:42:09.130Z,99507.41
2022-10-11T08:45:08.921Z,99509.00
2022-10-11T08:47:43.186Z,99515.16
2022-10-11T08:50:21.303Z,99516.03
2022-10-11T08:52:53.379Z,99523.06
2022-10-11T08:55:30.087Z,99517.75
2022-10-11T08:57:57.384Z,99520.09
2022-10-11T09:00:24.670Z,99514.53
2022-10-11T09:03:36.970Z,99521.56
2022-10-11T09:06:35.978Z,99515.16
2022-10-11T09:09:40.360Z,99514.91
2022-10-11T09:12:11.038Z,99520.19
2022-10-11T09:14:45.991Z,99523.78
2022-10-11T09:17:34.864Z,99527.09
2022-10-11T09:20:23.382Z,99517.97
2022-10-11T09:23:27.425Z,99526.09
2022-10-11T09:26:03.780Z,99533.97
2022-10-11T09:28:34.012Z,99521.28
2022-10-11T09:31:00.810Z,99520.41
2022-10-11T09:33:54.789Z,99524.75
2022-10-11T09:36:49.633Z,99528.91
2022-10-11T09:39:33.260Z,99525.22
2022-10-11T09:42:05.512Z,99531.50
2022-10-11T09:44:37.450Z,99527.69
2022-10-11T09:47:04.816Z,99524.84
2022-10-11T09:49:43.189Z,99527.44
2022-10-11T09:52:18.857Z,99526.28
2022-10-11T09:54:47.711Z,99527.91
2022-10-11T09:57:27.454Z,99536.06
2022-10-11T10:00:00.258Z,99540.22
2022-10-11T10:02:29.159Z,99539.25
2022-10-11T10:05:00.786Z,99541.94
2022-10-11T10:07:28.603Z,99547.13
2022-10-11T10:09:55.768Z,99545.13
2022-10-11T10:12:24.497Z,99553.03
2022-10-11T10:15:08.623Z,99551.03
2022-10-11T10:17:35.872Z,99549.06
2022-10-11T10:20:05.615Z,99544.34
2022-10-11T10:22:34.428Z,99552.22
2022-10-11T10:25:07.900Z,99553.97
2022-10-11T10:27:34.719Z,99555.28
2022-10-11T10:30:07.680Z,99552.31
2022-10-11T10:32:36.376Z,99550.44
2022-10-11T10:35:07.462Z,99550.31
2022-10-11T10:37:46.080Z,99551.81
2022-10-11T10:40:25.587Z,99548.97
2022-10-11T10:42:52.403Z,99552.25
2022-10-11T10:45:21.782Z,99555.44
2022-10-11T10:48:24.727Z,99551.59
2022-10-11T10:51:01.327Z,99554.94
2022-10-11T10:54:25.023Z,99557.91
2022-10-11T10:57:03.103Z,99552.09
2022-10-11T10:59:30.427Z,99554.50
2022-10-11T11:02:15.989Z,99547.44
2022-10-11T11:05:01.717Z,99542.59
2022-10-11T11:07:37.871Z,99553.03
2022-10-11T11:10:07.319Z,99548.22
2022-10-11T11:13:00.987Z,99550.63
2022-10-11T11:15:35.541Z,99549.66
2022-10-11T11:18:04.647Z,99549.66
2022-10-11T11:20:37.435Z,99553.59
2022-10-11T11:23:31.655Z,99554.78
2022-10-11T11:26:13.020Z,99546.06
2022-10-11T11:29:17.614Z,99548.13
2022-10-11T11:32:03.156Z,99546.56
2022-10-11T11:34:34.407Z,99555.59
2022-10-11T11:37:06.895Z,99548.47
2022-10-11T11:39:48.469Z,99552.75
2022-10-11T11:42:22.911Z,99550.03
2022-10-11T11:44:50.963Z,99552.22
2022-10-11T11:47:29.307Z,99556.38
2022-10-11T11:50:02.133Z,99557.69
2022-10-11T11:52:36.404Z,99554.56
2022-10-11T11:55:23.080Z,99550.41
2022-10-11T11:57:56.241Z,99549.56
2022-10-11T12:00:28.013Z,99553.00
2022-10-11T12:03:06.278Z,99550.59
2022-10-11T12:05:34.419Z,99551.72
2022-10-11T12:08:06.771Z,99555.91
2022-10-11T12:10:48.847Z,99542.78
2022-10-11T12:13:48.690Z,99541.31
2022-10-11T12:16:16.579Z,99547.91
2022-10-11T12:18:59.032Z,99548.06
2022-10-11T12:21:27.647Z,99546.09
2022-10-11T12:23:56.039Z,99552.94
2022-10-11T12:26:28.903Z,99545.34
2022-10-11T12:29:02.344Z,99549.09
2022-10-11T12:31:35.923Z,99545.22
2022-10-11T12:34:09.139Z,99542.91
2022-10-11T12:36:46.718Z,99554.25
2022-10-11T12:39:19.810Z,99553.25
2022-10-11T12:41:47.314Z,99541.94
2022-10-11T12:44:23.095Z,99539.63
2022-10-11T12:46:57.574Z,99542.94
2022-10-11T12:49:33.408Z,99545.66
2022-10-11T12:52:03.823Z,99545.50
2022-10-11T12:54:49.395Z,99539.78
2022-10-11T12:57:39.682Z,99539.91
2022-10-11T13:00:12.561Z,99536.72
2022-10-11T13:02:40.403Z,99543.22
2022-10-11T13:05:29.957Z,99547.34
2022-10-11T13:07:58.702Z,99545.78
2022-10-11T13:10:31.071Z,99548.38
2022-10-11T13:12:59.718Z,99545.19
2022-10-11T13:15:26.645Z,99546.63
2022-10-11T13:17:58.832Z,99546.34
2022-10-11T13:20:26.930Z,99551.81
2022-10-11T13:22:54.897Z,99549.50
2022-10-11T13:25:29.662Z,99550.22
2022-10-11T13:27:57.993Z,99548.81
2022-10-11T13:30:30.021Z,99542.03
2022-10-11T13:32:57.742Z,99547.34
2022-10-11T13:35:37.585Z,99543.78
2022-10-11T13:38:08.264Z,99543.63
2022-10-11T13:40:35.043Z,99540.75
2022-10-11T13:43:02.147Z,99540.91
2022-10-11T13:45:30.738Z,99544.19
2022-10-11T13:47:57.641Z,99546.63
2022-10-11T13:50:31.781Z,99543.91
2022-10-11T13:53:03.716Z,99552.94
2022-10-11T13:55:34.499Z,99551.19
2022-10-11T13:58:03.260Z,99548.31
2022-10-11T14:00:34.898Z,99553.78
2022-10-11T14:03:15.656Z,99560.13
2022-10-11T14:05:51.605Z,99559.97
2022-10-11T14:08:31.012Z,99557.06
2022-10-11T14:11:01.279Z,99554.34
2022-10-11T14:13:58.752Z,99551.78
2022-10-11T14:16:25.533Z,99554.66
2022-10-11T14:19:12.852Z,99557.25
2022-10-11T14:21:45.864Z,99550.78
2022-10-11T14:24:13.361Z,99556.22
2022-10-11T14:26:41.763Z,99552.66
2022-10-11T14:29:27.869Z,99554.53
2022-10-11T14:32:14.544Z,99558.09
2022-10-11T14:34:41.669Z,99561.53
2022-10-11T14:37:09.772Z,99556.38
2022-10-11T14:39:36.932Z,99559.97
2022-10-11T14:42:04.791Z,99560.13
2022-10-11T14:44:31.900Z,99566.56
2022-10-11T14:46:59.136Z,99573.00
2022-10-11T14:49:28.024Z,99564.97
2022-10-11T14:51:55.935Z,99563.28
2022-10-11T14:54:23.792Z,99566.16
2022-10-11T14:56:55.288Z,99562.56
2022-10-11T14:59:23.852Z,99570.88
2022-10-11T15:01:52.009Z,99570.19
2022-10-11T15:04:22.850Z,99577.47
2022-10-11T15:06:50.121Z,99565.00
2022-10-11T15:09:17.391Z,99576.91
2022-10-11T15:11:44.585Z,99573.34
2022-10-11T15:14:11.392Z,99573.47
2022-10-11T15:16:40.008Z,99571.88
2022-10-11T15:19:09.844Z,99577.47
2022-10-11T15:21:36.601Z,99577.06
2022-10-11T15:24:03.533Z,99569.91
2022-10-11T15:26:30.613Z,99581.78
2022-10-11T15:28:57.574Z,99584.81
2022-10-11T15:31:24.433Z,99585.97
2022-10-11T15:33:51.794Z,99587.09
2022-10-11T15:36:21.174Z,99589.97
2022-10-11T15:38:48.329Z,99587.50
2022-10-11T15:41:16.587Z,99593.28
2022-10-11T15:43:43.793Z,99593.56
2022-10-11T15:46:17.472Z,99593.97
2022-10-11T15:48:44.699Z,99592.38
2022-10-11T15:51:11.705Z,99592.69
2022-10-11T15:53:38.516Z,99598.41
2022-10-11T15:56:07.369Z,99602.41
2022-10-11T15:58:36.649Z,99604.56
2022-10-11T16:01:08.846Z,99605.84
2022-10-11T16:03:36.407Z,99613.44
2022-10-11T16:06:05.589Z,99620.13
2022-10-11T16:08:33.592Z,99615.97
2022-10-11T16:11:00.826Z,99619.94
2022-10-11T16:13:27.639Z,99618.53
2022-10-11T16:15:54.821Z,99623.53
2022-10-11T16:18:22.253Z,99627.38
2022-10-11T16:20:51.949Z,99631.38
2022-10-11T16:23:20.062Z,99626.34
2022-10-11T16:25:48.143Z,99632.06
2022-10-11T16:28:15.125Z,99636.19
2022-10-11T16:30:45.253Z,99632.75
2022-10-11T16:33:12.299Z,99629.41
2022-10-11T16:35:42.512Z,99627.25
2022-10-11T16:38:09.694Z,99628.50
2022-10-11T16:40:40.403Z,99632.50
2022-10-11T16:43:08.054Z,99632.91
2022-10-11T16:45:35.496Z,99640.47
2022-10-11T16:48:02.552Z,99642.63
2022-10-11T16:50:29.358Z,99651.16
2022-10-11T16:52:56.421Z,99643.53
2022-10-11T16:55:23.393Z,99640.34
2022-10-11T16:57:50.379Z,99644.22
2022-10-11T17:00:17.177Z,99653.63
2022-10-11T17:02:44.273Z,99649.56
2022-10-11T17:05:11.013Z,99661.78
2022-10-11T17:07:38.045Z,99655.91
2022-10-11T17:10:05.431Z,99656.19
2022-10-11T17:12:35.397Z,99661.16
2022-10-11T17:15:02.188Z,99666.25
2022-10-11T17:17:29.686Z,99660.19
2022-10-11T17:19:56.591Z,99658.00
2022-10-11T17:22:24.124Z,99657.41
2022-10-11T17:24:51.178Z,99666.78
2022-10-11T17:27:18.217Z,99676.31
2022-10-11T17:29:45.011Z,99670.28
2022-10-11T17:32:11.835Z,99675.25
2022-10-11T17:34:38.811Z,99669.19
2022-10-11T17:37:06.162Z,99668.72
2022-10-11T17:39:34.113Z,99676.25
2022-10-11T17:42:05.046Z,99678.72
2022-10-11T17:44:31.850Z,99676.38
2022-10-11T17:46:59.462Z,99677.25
2022-10-11T17:49:26.336Z,99679.25
2022-10-11T17:51:53.317Z,99676.31
2022-10-11T17:54:20.138Z,99674.81
2022-10-11T17:56:46.966Z,99671.81
2022-10-11T17:59:18.367Z,99673.94
2022-10-11T18:01:45.273Z,99676.75
2022-10-11T18:04:16.602Z,99674.56
2022-10-11T18:06:45.114Z,99681.34
2022-10-11T18:09:12.734Z,99678.00
2022-10-11T18:11:39.770Z,99672.81
2022-10-11T18:14:06.593Z,99672.69
2022-10-11T18:16:33.826Z,99677.25
2022-10-11T18:19:01.697Z,99683.16
2022-10-11T18:21:33.943Z,99684.28
2022-10-11T18:24:02.745Z,99673.69
2022-10-11T18:26:30.939Z,99680.59
2022-10-11T18:28:58.057Z,99676.38
2022-10-11T18:31:26.606Z,99674.41
2022-10-11T18:33:53.462Z,99672.03
2022-10-11T18:36:22.045Z,99674.47
2022-10-11T18:38:50.774Z,99674.13
2022-10-11T18:41:20.093Z,99678.44
2022-10-11T18:43:50.814Z,99679.63
2022-10-11T18:46:18.004Z,99679.41
2022-10-11T18:48:45.672Z,99683.31
2022-10-11T18:51:25.732Z,99679.13
2022-10-11T18:53:53.520Z,99680.16
2022-10-11T18:56:21.765Z,99683.00
2022-10-11T18:58:49.628Z,99679.25
2022-10-11T19:01:20.306Z,99681.97
2022-10-11T19:03:48.379Z,99682.72
2022-10-11T19:06:17.711Z,99691.53
2022-10-11T19:08:52.472Z,99686.81
2022-10-11T19:11:22.751Z,99684.13
2022-10-11T19:14:01.286Z,99688.78
2022-10-11T19:16:29.755Z,99694.66
2022-10-11T19:18:57.051Z,99694.13
2022-10-11T19:21:23.795Z,99695.00
2022-10-11T19:23:50.955Z,99694.47
2022-10-11T19:26:27.084Z,99694.97
2022-10-11T19:29:00.679Z,99699.59
2022-10-11T19:31:28.156Z,99694.53
2022-10-11T19:33:56.656Z,99698.56
2022-10-11T19:36:23.844Z,99691.53
2022-10-11T19:38:51.050Z,99702.25
2022-10-11T19:41:19.188Z,99697.38
2022-10-11T19:43:46.496Z,99701.31
2022-10-11T19:46:37.870Z,99697.72
2022-10-11T19:49:05.450Z,99706.41
2022-10-11T19:51:34.861Z,99706.53
2022-10-11T19:54:03.386Z,99703.28
2022-10-11T19:56:31.458Z,99704.59
2022-10-11T19:58:58.565Z,99705.56
2022-10-11T20:01:27.202Z,99709.03
2022-10-11T20:03:56.593Z,99705.38
2022-10-11T20:06:23.743Z,99708.56
2022-10-11T20:09:10.344Z,99709.66
2022-10-11T20:11:37.692Z,99701.78
2022-10-11T20:14:04.671Z,99708.94
2022-10-11T20:16:31.483Z,99713.88
2022-10-11T20:18:59.269Z,99711.97
2022-10-11T20:21:27.481Z,99714.19
2022-10-11T20:23:57.376Z,99702.19
2022-10-11T20:26:24.647Z,99699.59
2022-10-11T20:28:55.919Z,99707.50
2022-10-11T20:31:28.030Z,99710.97
2022-10-11T20:33:56.540Z,99713.91
2022-10-11T20:36:23.807Z,99709.78
2022-10-11T20:38:51.270Z,99709.91
2022-10-11T20:41:19.980Z,99711.94
2022-10-11T20:43:51.468Z,99710.44
2022-10-11T20:46:19.850Z,99719.06
2022-10-11T20:48:58.864Z,99715.06
2022-10-11T20:51:28.936Z,99716.81
2022-10-11T20:53:56.511Z,99716.91
2022-10-11T20:56:23.331Z,99718.97
2022-10-11T20:58:52.264Z,99723.13
2022-10-11T21:01:20.721Z,99718.91
2022-10-11T21:03:47.526Z,99718.06
2022-10-11T21:06:14.590Z,99718.38
2022-10-11T21:08:41.369Z,99716.53
2022-10-11T21:11:08.827Z,99720.53
2022-10-11T21:13:35.721Z,99716.19
2022-10-11T21:16:04.427Z,99715.31
2022-10-11T21:18:31.230Z,99719.41
2022-10-11T21:20:57.990Z,99719.31
2022-10-11T21:23:24.974Z,99716.72
2022-10-11T21:25:51.770Z,99720.56
2022-10-11T21:28:18.569Z,99713.22
2022-10-11T21:30:45.623Z,99713.88
2022-10-11T21:33:12.379Z,99718.50
2022-10-11T21:35:40.180Z,99715.03
2022-10-11T21:38:07.183Z,99714.56
2022-10-11T21:40:37.863Z,99716.41
2022-10-11T21:43:04.639Z,99721.16
2022-10-11T21:45:31.642Z,99720.50
2022-10-11T21:47:58.566Z,99723.19
2022-10-11T21:50:25.574Z,99725.41
2022-10-11T21:52:52.350Z,99731.56
2022-10-11T21:55:19.369Z,99723.75
2022-10-11T21:57:46.110Z,99718.34
2022-10-11T22:00:13.486Z,99716.28
2022-10-11T22:02:40.626Z,99720.91
2022-10-11T22:05:07.680Z,99718.22
2022-10-11T22:07:34.462Z,99715.50
2022-10-11T22:10:01.602Z,99713.19
2022-10-11T22:12:28.587Z,99716.00
2022-10-11T22:14:55.438Z,99721.59
2022-10-11T22:17:22.506Z,99718.13
2022-10-11T22:19:49.282Z,99720.94
2022-10-11T22:22:16.114Z,99719.41
2022-10-11T22:24:43.130Z,99721.22
2022-10-11T22:27:09.936Z,99717.00
2022-10-11T22:29:36.761Z,99721.72
2022-10-11T22:32:04.526Z,99717.00
2022-10-11T22:34:32.485Z,99719.88
2022-10-11T22:36:59.245Z,99719.13
2022-10-11T22:39:26.294Z,99721.03
2022-10-11T22:41:53.905Z,99715.63
2022-10-11T22:44:20.829Z,99713.16
2022-10-11T22:46:47.853Z,99716.34
2022-10-11T22:49:14.649Z,99718.28
2022-10-11T22:51:41.445Z,99715.94
2022-10-11T22:54:08.493Z,99715.19
2022-10-11T22:56:35.366Z,99712.13
2022-10-11T22:59:02.143Z,99705.44
2022-10-11T23:01:29.153Z,99709.13
2022-10-11T23:03:56.669Z,99712.88
2022-10-11T23:06:23.525Z,99709.59
2022-10-11T23:08:50.537Z,99713.84
2022-10-11T23:11:17.372Z,99703.25
2022-10-11T23:13:44.133Z,99711.53
2022-10-11T23:16:12.012Z,99712.47
2022-10-11T23:18:38.903Z,99711.91
2022-10-11T23:21:05.876Z,99709.22
2022-10-11T23:23:33.001Z,99712.97
2022-10-11T23:26:11.434Z,99713.94
2022-10-11T23:28:38.546Z,99705.16
2022-10-11T23:31:09.283Z,99711.59
2022-10-11T23:33:36.515Z,99719.81
2022-10-11T23:36:04.068Z,99720.84
2022-10-11T23:38:31.033Z,99731.91
2022-10-11T23:40:57.856Z,99732.09
2022-10-11T23:43:24.835Z,99733.84
2022-10-11T23:45:51.600Z,99735.00
2022-10-11T23:48:18.368Z,99730.84
2022-10-11T23:50:45.608Z,99730.06
2022-10-11T23:53:13.735Z,99731.31
2022-10-11T23:55:40.691Z,99724.88
2022-10-11T23:58:08.187Z,99739.28
